Time;durP1;ratioP1;P1;durP2;ratioP2;P2;SDS_P1;SDS_P2;PMS_P1;PMS_P2;Temp;Humidity;BMP_temperature;BMP_pressure;BME280_temperature;BME280_humidity;BME280_pressure;Samples;Min_cycle;Max_cycle;Signal;HPM_P1;HPM_P2
2024/01/29 00:02:12;;;;;;;;;;;;;;;5.19;100.00;102415.47;5118649;28;19923;-71
2024/01/29 00:04:38;;;;;;;;;;;;;;;5.18;100.00;102404.22;5120113;28;19920;-71
2024/01/29 00:07:03;;;;;;;;;;;;;;;5.18;100.00;102405.91;5119503;28;19976;-71
2024/01/29 00:09:28;;;;;;;;;;;;;;;5.18;100.00;102404.22;5119571;28;19946;-71
2024/01/29 00:11:54;;;;;;;;;;;;;;;5.18;100.00;102404.22;5119094;28;19946;-71
2024/01/29 00:14:19;;;;;;;;;;;;;;;5.16;100.00;102402.44;5119367;28;19946;-71
2024/01/29 00:16:46;;;;;;;;;;;;;;;5.17;100.00;102401.59;5098005;28;19920;-71
2024/01/29 00:19:11;;;;;;;;;;;;;;;5.15;100.00;102392.94;5114583;28;19920;-71
2024/01/29 00:21:36;;;;;;;;;;;;;;;5.14;100.00;102393.78;5108839;28;20175;-71
2024/01/29 00:24:02;;;;;;;;;;;;;;;5.15;100.00;102391.19;5120464;28;19920;-71
2024/01/29 00:26:27;;;;;;;;;;;;;;;5.13;100.00;102400.72;5120946;28;19941;-71
2024/01/29 00:28:52;;;;;;;;;;;;;;;5.13;100.00;102403.31;5121950;28;20253;-71
2024/01/29 00:31:18;;;;;;;;;;;;;;;5.11;100.00;102401.53;5120836;28;19930;-71
2024/01/29 00:33:43;;;;;;;;;;;;;;;5.13;100.00;102405.00;5121177;28;19927;-71
2024/01/29 00:36:08;;;;;;;;;;;;;;;5.11;100.00;102402.44;5121631;28;20088;-71
2024/01/29 00:38:34;;;;;;;;;;;;;;;5.11;100.00;102411.94;5121716;28;19919;-71
2024/01/29 00:40:59;;;;;;;;;;;;;;;5.11;100.00;102409.34;5120744;28;19920;-71
2024/01/29 00:43:24;;;;;;;;;;;;;;;5.08;100.00;102412.78;5121669;28;19954;-71
2024/01/29 00:45:49;;;;;;;;;;;;;;;5.09;100.00;102422.31;5120959;28;20157;-71
2024/01/29 00:48:15;;;;;;;;;;;;;;;5.07;100.00;102430.94;5121468;28;19919;-71
2024/01/29 00:50:40;;;;;;;;;;;;;;;5.08;100.00;102422.31;5121347;28;19924;-71
2024/01/29 00:53:05;;;;;;;;;;;;;;;5.06;100.00;102419.72;5121097;28;19934;-71
2024/01/29 00:55:31;;;;;;;;;;;;;;;5.08;100.00;102424.91;5121516;28;19955;-71
2024/01/29 00:57:56;;;;;;;;;;;;;;;5.04;100.00;102431.81;5120692;28;19946;-71
2024/01/29 01:00:21;;;;;;;;;;;;;;;5.05;100.00;102425.75;5121598;28;19934;-71
2024/01/29 01:02:46;;;;;;;;;;;;;;;5.07;100.00;102429.22;5120937;28;19979;-71
2024/01/29 01:05:12;;;;;;;;;;;;;;;5.07;100.00;102433.56;5120347;28;19943;-71
2024/01/29 01:07:37;;;;;;;;;;;;;;;5.08;100.00;102436.16;5121166;28;19975;-71
2024/01/29 01:10:03;;;;;;;;;;;;;;;5.05;100.00;102435.28;5119881;28;19923;-71
2024/01/29 01:12:28;;;;;;;;;;;;;;;5.05;100.00;102438.72;5121103;28;19926;-71
2024/01/29 01:14:53;;;;;;;;;;;;;;;5.06;100.00;102434.41;5119341;28;19951;-71
2024/01/29 01:17:19;;;;;;;;;;;;;;;5.01;100.00;102444.75;5121167;28;19957;-71
2024/01/29 01:19:44;;;;;;;;;;;;;;;5.00;100.00;102433.53;5121924;28;20009;-71
2024/01/29 01:22:09;;;;;;;;;;;;;;;4.96;100.00;102439.50;5120867;28;19919;-71
2024/01/29 01:24:35;;;;;;;;;;;;;;;4.95;100.00;102436.94;5120988;28;19926;-71
2024/01/29 01:27:00;;;;;;;;;;;;;;;4.93;100.00;102433.44;5120504;28;19920;-71
2024/01/29 01:29:25;;;;;;;;;;;;;;;4.91;100.00;102438.63;5121576;28;19926;-71
2024/01/29 01:31:50;;;;;;;;;;;;;;;4.91;100.00;102428.25;5121353;28;19939;-71
2024/01/29 01:34:15;;;;;;;;;;;;;;;4.91;100.00;102432.56;5121842;28;19915;-71
2024/01/29 01:36:41;;;;;;;;;;;;;;;4.89;100.00;102432.53;5124550;28;19926;-71
2024/01/29 01:39:06;;;;;;;;;;;;;;;4.88;100.00;102429.94;5124249;28;19919;-71
2024/01/29 01:41:31;;;;;;;;;;;;;;;4.85;100.00;102430.78;5125167;28;19919;-71
2024/01/29 01:43:56;;;;;;;;;;;;;;;4.85;100.00;102433.38;5124148;28;20115;-71
2024/01/29 01:46:22;;;;;;;;;;;;;;;4.84;100.00;102429.06;5123677;28;19942;-71
2024/01/29 01:48:51;;;;;;;;;;;;;;;4.84;100.00;102433.34;5124835;28;20182;-71
2024/01/29 01:51:17;;;;;;;;;;;;;;;4.86;100.00;102434.22;5124070;28;19924;-71
2024/01/29 01:53:44;;;;;;;;;;;;;;;4.84;100.00;102438.53;5124826;28;19918;-71
2024/01/29 01:56:09;;;;;;;;;;;;;;;4.83;100.00;102434.22;5122572;28;19984;-71
2024/01/29 01:58:35;;;;;;;;;;;;;;;4.81;100.00;102436.81;5124818;28;19912;-71
2024/01/29 02:01:01;;;;;;;;;;;;;;;4.79;100.00;102436.78;5124223;28;20289;-71
2024/01/29 02:03:27;;;;;;;;;;;;;;;4.80;100.00;102429.88;5123674;28;19920;-71
2024/01/29 02:05:52;;;;;;;;;;;;;;;4.81;100.00;102437.66;5124403;28;19920;-71
2024/01/29 02:08:18;;;;;;;;;;;;;;;4.79;100.00;102431.59;5124178;28;20169;-71
2024/01/29 02:10:44;;;;;;;;;;;;;;;4.79;100.00;102420.34;5123514;28;19924;-71
2024/01/29 02:13:13;;;;;;;;;;;;;;;4.79;100.00;102422.94;5123625;28;19926;-71
2024/01/29 02:15:38;;;;;;;;;;;;;;;4.81;100.00;102418.63;5123423;28;20168;-71
2024/01/29 02:18:03;;;;;;;;;;;;;;;4.77;100.00;102417.75;5123774;28;19970;-71
2024/01/29 02:20:29;;;;;;;;;;;;;;;4.76;100.00;102423.78;5123939;28;19907;-71
2024/01/29 02:22:54;;;;;;;;;;;;;;;4.78;100.00;102424.69;5123067;28;19920;-71
2024/01/29 02:25:19;;;;;;;;;;;;;;;4.79;100.00;102425.53;5123934;28;19926;-71
2024/01/29 02:27:44;;;;;;;;;;;;;;;4.78;100.00;102429.88;5124217;28;19920;-71
2024/01/29 02:30:10;;;;;;;;;;;;;;;4.81;100.00;102424.69;5123213;28;19953;-71
2024/01/29 02:32:35;;;;;;;;;;;;;;;4.83;100.00;102424.72;5123273;28;20104;-71
2024/01/29 02:35:00;;;;;;;;;;;;;;;4.80;100.00;102422.97;5123450;28;19911;-71
2024/01/29 02:37:26;;;;;;;;;;;;;;;4.80;100.00;102424.66;5123404;28;20057;-71
2024/01/29 02:39:51;;;;;;;;;;;;;;;4.79;100.00;102428.13;5123665;28;19916;-71
2024/01/29 02:42:17;;;;;;;;;;;;;;;4.77;100.00;102430.72;5123472;28;19919;-71
2024/01/29 02:44:43;;;;;;;;;;;;;;;4.76;100.00;102425.50;5123886;28;20133;-71
2024/01/29 02:47:08;;;;;;;;;;;;;;;4.74;100.00;102429.81;5122561;28;20472;-71
2024/01/29 02:49:34;;;;;;;;;;;;;;;4.73;100.00;102441.94;5123443;28;19920;-71
2024/01/29 02:51:59;;;;;;;;;;;;;;;4.73;100.00;102439.34;5123111;28;19911;-71
2024/01/29 02:54:24;;;;;;;;;;;;;;;4.69;100.00;102440.13;5123476;28;20289;-71
2024/01/29 02:56:49;;;;;;;;;;;;;;;4.68;100.00;102438.41;5122683;28;19919;-71
2024/01/29 02:59:15;;;;;;;;;;;;;;;4.65;100.00;102440.97;5105118;28;19954;-71
2024/01/29 03:01:40;;;;;;;;;;;;;;;4.67;100.00;102444.44;5123773;28;20120;-71
2024/01/29 03:04:05;;;;;;;;;;;;;;;4.68;100.00;102446.22;5122975;28;20208;-71
2024/01/29 03:06:30;;;;;;;;;;;;;;;4.68;100.00;102448.81;5123561;28;19920;-71
2024/01/29 03:08:56;;;;;;;;;;;;;;;4.70;100.00;102447.09;5122772;28;19915;-71
2024/01/29 03:11:21;;;;;;;;;;;;;;;4.71;100.00;102453.13;5122722;28;19947;-71
2024/01/29 03:13:47;;;;;;;;;;;;;;;4.69;100.00;102454.84;5123316;28;19923;-71
2024/01/29 03:16:12;;;;;;;;;;;;;;;4.65;100.00;102455.69;5122928;28;19920;-71
2024/01/29 03:18:37;;;;;;;;;;;;;;;4.61;100.00;102450.47;5120607;28;20033;-72
2024/01/29 03:21:03;;;;;;;;;;;;;;;4.57;100.00;102468.59;5115486;28;20188;-72
2024/01/29 03:23:28;;;;;;;;;;;;;;;4.55;100.00;102468.56;5116083;28;20152;-72
2024/01/29 03:25:53;;;;;;;;;;;;;;;4.57;100.00;102453.88;5115713;28;20177;-72
2024/01/29 03:28:18;;;;;;;;;;;;;;;4.57;100.00;102447.84;5115522;28;20425;-72
2024/01/29 03:30:43;;;;;;;;;;;;;;;4.58;100.00;102442.66;5113219;28;20193;-72
2024/01/29 03:33:09;;;;;;;;;;;;;;;4.54;100.00;102461.63;5115432;28;19915;-72
2024/01/29 03:35:34;;;;;;;;;;;;;;;4.55;100.00;102455.59;5115906;28;20140;-72
2024/01/29 03:37:59;;;;;;;;;;;;;;;4.55;100.00;102459.94;5119019;28;19919;-71
2024/01/29 03:40:24;;;;;;;;;;;;;;;4.56;100.00;102464.25;5121968;28;20115;-71
2024/01/29 03:42:49;;;;;;;;;;;;;;;4.56;100.00;102477.22;5122272;28;20282;-71
2024/01/29 03:45:15;;;;;;;;;;;;;;;4.55;100.00;102468.56;5118870;28;20011;-71
2024/01/29 03:47:40;;;;;;;;;;;;;;;4.55;100.00;102470.31;5117297;28;20130;-71
2024/01/29 03:50:05;;;;;;;;;;;;;;;4.56;100.00;102469.44;5121911;28;19962;-71
2024/01/29 03:52:31;;;;;;;;;;;;;;;4.56;100.00;102466.84;5102647;28;20238;-71
2024/01/29 03:54:56;;;;;;;;;;;;;;;4.47;100.00;102477.13;5121425;28;19919;-71
2024/01/29 03:57:21;;;;;;;;;;;;;;;4.46;100.00;102473.66;5121480;28;19920;-71
2024/01/29 03:59:46;;;;;;;;;;;;;;;4.47;100.00;102464.16;5122201;28;19920;-71
2024/01/29 04:02:11;;;;;;;;;;;;;;;4.48;100.00;102455.53;5120536;28;19920;-71
2024/01/29 04:04:37;;;;;;;;;;;;;;;4.43;100.00;102455.47;5120534;28;19930;-71
2024/01/29 04:07:02;;;;;;;;;;;;;;;4.42;100.00;102448.53;5120522;28;19979;-71
2024/01/29 04:09:27;;;;;;;;;;;;;;;4.42;100.00;102439.03;5122423;28;20128;-71
2024/01/29 04:11:53;;;;;;;;;;;;;;;4.41;100.00;102441.59;5120619;28;19922;-71
2024/01/29 04:14:19;;;;;;;;;;;;;;;4.40;100.00;102439.84;5122614;28;20148;-71
2024/01/29 04:16:45;;;;;;;;;;;;;;;4.37;100.00;102438.13;5120825;28;19920;-71
2024/01/29 04:19:10;;;;;;;;;;;;;;;4.36;100.00;102444.13;5122050;28;19920;-71
2024/01/29 04:21:35;;;;;;;;;;;;;;;4.34;100.00;102437.22;5121413;28;19920;-71
2024/01/29 04:24:00;;;;;;;;;;;;;;;4.34;100.00;102442.41;5121404;28;19915;-71
2024/01/29 04:26:26;;;;;;;;;;;;;;;4.33;100.00;102438.94;5121793;28;19926;-71
2024/01/29 04:28:51;;;;;;;;;;;;;;;4.34;100.00;102443.25;5121667;28;20320;-71
2024/01/29 04:31:16;;;;;;;;;;;;;;;4.33;100.00;102446.72;5121027;28;20264;-71
2024/01/29 04:33:42;;;;;;;;;;;;;;;4.30;100.00;102448.41;5121436;28;19942;-71
2024/01/29 04:36:07;;;;;;;;;;;;;;;4.32;100.00;102433.72;5121231;28;19916;-71
2024/01/29 04:38:33;;;;;;;;;;;;;;;4.33;100.00;102443.22;5121648;28;19919;-72
2024/01/29 04:40:58;;;;;;;;;;;;;;;4.33;100.00;102441.53;5120705;28;19939;-71
2024/01/29 04:43:23;;;;;;;;;;;;;;;4.33;100.00;102441.53;5113309;28;19920;-71
2024/01/29 04:45:48;;;;;;;;;;;;;;;4.34;100.00;102445.00;5121568;28;19916;-71
2024/01/29 04:48:13;;;;;;;;;;;;;;;4.35;100.00;102447.59;5120258;28;19919;-71
2024/01/29 04:50:39;;;;;;;;;;;;;;;4.35;100.00;102446.75;5121289;28;19934;-71
2024/01/29 04:53:04;;;;;;;;;;;;;;;4.36;100.00;102446.72;5120923;28;19951;-71
2024/01/29 04:55:29;;;;;;;;;;;;;;;4.39;100.00;102419.97;5121073;28;20093;-72
2024/01/29 04:57:54;;;;;;;;;;;;;;;4.38;100.00;102428.59;5120503;28;20164;-71
2024/01/29 05:00:20;;;;;;;;;;;;;;;4.39;100.00;102438.13;5121586;28;19946;-71
2024/01/29 05:02:47;;;;;;;;;;;;;;;4.38;100.00;102434.69;5121185;28;20122;-71
2024/01/29 05:05:13;;;;;;;;;;;;;;;4.39;100.00;102438.13;5101849;28;19973;-71
2024/01/29 05:07:38;;;;;;;;;;;;;;;4.38;100.00;102449.34;5120468;28;19920;-71
2024/01/29 05:10:03;;;;;;;;;;;;;;;4.37;100.00;102445.03;5121967;28;19923;-72
2024/01/29 05:12:30;;;;;;;;;;;;;;;4.41;100.00;102442.47;5124793;28;19928;-72
2024/01/29 05:14:55;;;;;;;;;;;;;;;4.40;100.00;102451.13;5124118;28;19958;-72
2024/01/29 05:17:21;;;;;;;;;;;;;;;4.40;100.00;102458.00;5125787;28;20203;-71
2024/01/29 05:19:47;;;;;;;;;;;;;;;4.46;100.00;102457.22;5125520;28;19920;-71
2024/01/29 05:22:12;;;;;;;;;;;;;;;4.40;100.00;102455.41;5124871;28;20145;-71
2024/01/29 05:24:38;;;;;;;;;;;;;;;4.43;100.00;102461.50;5125345;28;19941;-72
2024/01/29 05:27:03;;;;;;;;;;;;;;;4.42;100.00;102467.56;5124593;28;19919;-71
2024/01/29 05:29:28;;;;;;;;;;;;;;;4.44;100.00;102467.59;5125483;28;20131;-71
2024/01/29 05:31:54;;;;;;;;;;;;;;;4.46;100.00;102468.47;5125077;28;19969;-71
2024/01/29 05:34:19;;;;;;;;;;;;;;;4.47;100.00;102471.94;5123920;28;19923;-71
2024/01/29 05:36:44;;;;;;;;;;;;;;;4.49;100.00;102467.63;5125067;28;19958;-71
2024/01/29 05:39:09;;;;;;;;;;;;;;;4.51;100.00;102476.28;5124592;28;19926;-71
2024/01/29 05:41:35;;;;;;;;;;;;;;;4.46;100.00;102477.97;5125045;28;19919;-71
2024/01/29 05:44:00;;;;;;;;;;;;;;;4.46;100.00;102488.34;5124298;28;20099;-71
2024/01/29 05:46:25;;;;;;;;;;;;;;;4.41;100.00;102483.13;5124880;28;19912;-71
2024/01/29 05:48:50;;;;;;;;;;;;;;;4.42;100.00;102472.75;5123998;28;19977;-71
2024/01/29 05:51:16;;;;;;;;;;;;;;;4.36;100.00;102480.47;5124305;28;20170;-71
2024/01/29 05:53:41;;;;;;;;;;;;;;;4.39;100.00;102482.22;5124041;28;20148;-71
2024/01/29 05:56:07;;;;;;;;;;;;;;;4.42;100.00;102474.47;5105147;28;19931;-71
2024/01/29 05:58:34;;;;;;;;;;;;;;;4.41;100.00;102477.94;5124300;28;19926;-71
2024/01/29 06:00:59;;;;;;;;;;;;;;;4.42;100.00;102467.56;5124834;28;19915;-71
2024/01/29 06:03:25;;;;;;;;;;;;;;;4.41;100.00;102464.97;5124545;28;20182;-71
2024/01/29 06:05:50;;;;;;;;;;;;;;;4.36;100.00;102475.28;5123995;28;19920;-71
2024/01/29 06:08:15;;;;;;;;;;;;;;;4.34;100.00;102463.16;5124116;28;20199;-71
2024/01/29 06:10:41;;;;;;;;;;;;;;;4.35;100.00;102464.91;5121576;28;19923;-71
2024/01/29 06:13:06;;;;;;;;;;;;;;;4.32;100.00;102475.22;5124059;28;19958;-71
2024/01/29 06:15:31;;;;;;;;;;;;;;;4.32;100.00;102457.94;5123837;28;19928;-72
2024/01/29 06:17:56;;;;;;;;;;;;;;;4.30;100.00;102462.25;5122949;28;20000;-72
2024/01/29 06:20:22;;;;;;;;;;;;;;;4.28;100.00;102463.94;5123737;28;20230;-72
2024/01/29 06:22:47;;;;;;;;;;;;;;;4.30;100.00;102474.34;5122614;28;19927;-72
2024/01/29 06:25:12;;;;;;;;;;;;;;;4.29;100.00;102464.81;5123318;28;20150;-72
2024/01/29 06:27:37;;;;;;;;;;;;;;;4.29;100.00;102468.28;5124044;28;19934;-72
2024/01/29 06:30:03;;;;;;;;;;;;;;;4.29;100.00;102475.19;5123352;28;19934;-72
2024/01/29 06:32:29;;;;;;;;;;;;;;;4.31;100.00;102471.78;5124289;28;19919;-72
2024/01/29 06:34:57;;;;;;;;;;;;;;;4.33;100.00;102483.03;5105396;28;19920;-72
2024/01/29 06:37:22;;;;;;;;;;;;;;;4.35;100.00;102478.72;5121692;28;19961;-72
2024/01/29 06:39:47;;;;;;;;;;;;;;;4.35;100.00;102475.28;5104896;28;19911;-72
2024/01/29 06:42:13;;;;;;;;;;;;;;;4.35;100.00;102481.31;5123628;28;20127;-72
2024/01/29 06:44:38;;;;;;;;;;;;;;;4.35;100.00;102470.94;5123331;28;19922;-72
2024/01/29 06:47:04;;;;;;;;;;;;;;;4.34;100.00;102474.38;5122646;28;19916;-72
2024/01/29 06:49:30;;;;;;;;;;;;;;;4.32;100.00;102483.00;5122767;28;19947;-71
2024/01/29 06:51:55;;;;;;;;;;;;;;;4.30;100.00;102492.50;5123243;28;19927;-72
2024/01/29 06:54:21;;;;;;;;;;;;;;;4.27;100.00;102498.50;5123626;28;19919;-72
2024/01/29 06:56:46;;;;;;;;;;;;;;;4.26;100.00;102504.56;5123264;28;19927;-72
2024/01/29 06:59:12;;;;;;;;;;;;;;;4.29;100.00;102514.94;5123592;28;19927;-72
2024/01/29 07:01:37;;;;;;;;;;;;;;;4.29;100.00;102503.72;5105110;28;20207;-72
2024/01/29 07:04:03;;;;;;;;;;;;;;;4.27;100.00;102511.47;5123002;28;19947;-72
2024/01/29 07:06:29;;;;;;;;;;;;;;;4.28;100.00;102504.59;5123550;28;19942;-72
2024/01/29 07:08:54;;;;;;;;;;;;;;;4.30;100.00;102505.47;5120517;28;19928;-72
2024/01/29 07:11:19;;;;;;;;;;;;;;;4.30;100.00;102506.34;5123015;28;19923;-72
2024/01/29 07:13:44;;;;;;;;;;;;;;;4.31;100.00;102507.19;5123169;28;19931;-72
2024/01/29 07:16:10;;;;;;;;;;;;;;;4.29;100.00;102511.50;5122554;28;20010;-72
2024/01/29 07:18:36;;;;;;;;;;;;;;;4.29;100.00;102512.38;5122935;28;20190;-72
2024/01/29 07:21:02;;;;;;;;;;;;;;;4.29;100.00;102517.56;5122108;28;19942;-72
2024/01/29 07:23:27;;;;;;;;;;;;;;;4.32;100.00;102516.72;5122855;28;19919;-72
2024/01/29 07:25:52;;;;;;;;;;;;;;;4.32;100.00;102520.19;5122656;28;19916;-72
2024/01/29 07:28:17;;;;;;;;;;;;;;;4.33;100.00;102516.75;5122347;28;19926;-72
2024/01/29 07:30:43;;;;;;;;;;;;;;;4.35;100.00;102519.38;5121922;27;19923;-72
2024/01/29 07:33:08;;;;;;;;;;;;;;;4.37;100.00;102525.44;5121183;28;19965;-72
2024/01/29 07:35:33;;;;;;;;;;;;;;;4.38;100.00;102520.28;5122920;28;19920;-72
2024/01/29 07:37:58;;;;;;;;;;;;;;;4.38;100.00;102520.28;5103712;28;19934;-72
2024/01/29 07:40:24;;;;;;;;;;;;;;;4.37;100.00;102526.31;5122501;28;19920;-72
2024/01/29 07:42:49;;;;;;;;;;;;;;;4.37;100.00;102538.41;5122464;28;19923;-72
2024/01/29 07:45:15;;;;;;;;;;;;;;;4.37;100.00;102534.09;5121899;28;19927;-72
2024/01/29 07:47:40;;;;;;;;;;;;;;;4.40;100.00;102538.44;5122473;28;19919;-72
2024/01/29 07:50:05;;;;;;;;;;;;;;;4.41;100.00;102545.38;5121348;28;19916;-71
2024/01/29 07:52:31;;;;;;;;;;;;;;;4.41;100.00;102542.78;5122554;28;19961;-71
2024/01/29 07:54:56;;;;;;;;;;;;;;;4.41;100.00;102546.25;5117084;28;19920;-71
2024/01/29 07:57:21;;;;;;;;;;;;;;;4.42;100.00;102545.41;5110884;28;19922;-72
2024/01/29 07:59:46;;;;;;;;;;;;;;;4.40;100.00;102547.09;5117966;28;19926;-72
2024/01/29 08:02:12;;;;;;;;;;;;;;;4.43;100.00;102541.06;5121354;28;19923;-72
2024/01/29 08:04:37;;;;;;;;;;;;;;;4.47;100.00;102541.97;5118620;28;20120;-72
2024/01/29 08:07:03;;;;;;;;;;;;;;;4.48;100.00;102543.75;5119428;28;19982;-72
2024/01/29 08:09:28;;;;;;;;;;;;;;;4.46;100.00;102548.00;5122130;28;19920;-74
2024/01/29 08:11:53;;;;;;;;;;;;;;;4.48;100.00;102559.31;5114196;28;19937;-72
2024/01/29 08:14:18;;;;;;;;;;;;;;;4.51;100.00;102549.84;5101466;28;19923;-72
2024/01/29 08:16:44;;;;;;;;;;;;;;;4.53;100.00;102555.00;5119955;28;19920;-71
2024/01/29 08:19:09;;;;;;;;;;;;;;;4.55;100.00;102555.94;5121074;28;20056;-72
2024/01/29 08:21:35;;;;;;;;;;;;;;;4.54;100.00;102547.25;5121808;28;19973;-72
2024/01/29 08:24:02;;;;;;;;;;;;;;;4.56;100.00;102550.72;5121341;28;19949;-71
2024/01/29 08:26:27;;;;;;;;;;;;;;;4.58;100.00;102545.56;5121288;28;19947;-71
2024/01/29 08:28:53;;;;;;;;;;;;;;;4.57;100.00;102549.03;5120204;28;19923;-71
2024/01/29 08:31:18;;;;;;;;;;;;;;;4.58;100.00;102548.16;5120454;28;19923;-71
2024/01/29 08:33:43;;;;;;;;;;;;;;;4.58;100.00;102548.16;5121870;28;20307;-71
2024/01/29 08:36:08;;;;;;;;;;;;;;;4.57;100.00;102549.91;5120970;28;19947;-71
2024/01/29 08:38:34;;;;;;;;;;;;;;;4.60;100.00;102554.25;5101082;28;19961;-71
2024/01/29 08:40:59;;;;;;;;;;;;;;;4.63;100.00;102548.22;5112251;28;19937;-71
2024/01/29 08:43:24;;;;;;;;;;;;;;;4.61;100.00;102556.84;5119955;28;19958;-72
2024/01/29 08:45:49;;;;;;;;;;;;;;;4.62;100.00;102560.34;5123676;28;19916;-72
2024/01/29 08:48:15;;;;;;;;;;;;;;;4.65;100.00;102557.75;5124334;28;19971;-72
2024/01/29 08:50:40;;;;;;;;;;;;;;;4.72;100.00;102556.13;5124829;28;19942;-72
2024/01/29 08:53:05;;;;;;;;;;;;;;;4.74;100.00;102559.59;5123690;28;20095;-72
2024/01/29 08:55:31;;;;;;;;;;;;;;;4.76;100.00;102547.50;5106020;28;19927;-72
2024/01/29 08:57:56;;;;;;;;;;;;;;;4.79;100.00;102542.34;5124974;28;20231;-72
2024/01/29 09:00:22;;;;;;;;;;;;;;;4.79;100.00;102547.53;5125731;28;19941;-72
2024/01/29 09:02:48;;;;;;;;;;;;;;;4.82;100.00;102537.19;5125080;28;19916;-72
2024/01/29 09:05:13;;;;;;;;;;;;;;;4.83;100.00;102538.06;5123760;28;19916;-72
2024/01/29 09:07:38;;;;;;;;;;;;;;;4.84;100.00;102542.38;5124535;28;19959;-72
2024/01/29 09:10:04;;;;;;;;;;;;;;;4.87;100.00;102545.03;5123423;28;19920;-72
2024/01/29 09:12:29;;;;;;;;;;;;;;;4.88;100.00;102554.56;5124167;28;19946;-72
2024/01/29 09:14:54;;;;;;;;;;;;;;;4.90;100.00;102553.72;5104515;28;19923;-72
2024/01/29 09:17:19;;;;;;;;;;;;;;;4.93;100.00;102555.47;5105097;28;19916;-72
2024/01/29 09:19:45;;;;;;;;;;;;;;;4.96;100.00;102548.56;5124792;28;19915;-72
2024/01/29 09:22:13;;;;;;;;;;;;;;;5.00;100.00;102554.66;5124226;28;19958;-72
2024/01/29 09:24:38;;;;;;;;;;;;;;;5.03;100.00;102556.44;5125045;28;19997;-72
2024/01/29 09:27:04;;;;;;;;;;;;;;;5.06;100.00;102561.63;5125172;28;19916;-72
2024/01/29 09:29:29;;;;;;;;;;;;;;;5.10;100.00;102566.91;5118482;28;19923;-72
2024/01/29 09:31:54;;;;;;;;;;;;;;;5.10;100.00;102569.50;5124049;28;20010;-72
2024/01/29 09:34:21;;;;;;;;;;;;;;;5.12;100.00;102574.72;5098723;28;19920;-72
2024/01/29 09:36:47;;;;;;;;;;;;;;;5.15;100.00;102580.81;5117380;28;19920;-72
2024/01/29 09:39:12;;;;;;;;;;;;;;;5.19;100.00;102587.75;5095309;28;19930;-72
2024/01/29 09:41:42;;;;;;;;;;;;;;;5.22;100.00;102583.44;5120283;28;19915;-72
2024/01/29 09:44:09;;;;;;;;;;;;;;;5.25;100.00;102586.09;5114852;28;19971;-72
2024/01/29 09:46:37;;;;;;;;;;;;;;;5.29;100.00;102585.25;5115084;28;19943;-72
2024/01/29 09:49:02;;;;;;;;;;;;;;;5.31;100.00;102591.31;5113261;28;19980;-72
2024/01/29 09:51:28;;;;;;;;;;;;;;;5.32;100.00;102586.16;5109723;27;19932;-72
2024/01/29 09:53:54;;;;;;;;;;;;;;;5.38;100.00;102582.72;5116732;28;19920;-72
2024/01/29 09:56:20;;;;;;;;;;;;;;;5.43;100.00;102581.06;5119826;28;19943;-72
2024/01/29 09:58:45;;;;;;;;;;;;;;;5.49;100.00;102586.28;5120574;28;19920;-72
2024/01/29 10:01:11;;;;;;;;;;;;;;;5.55;100.00;102591.56;5118497;28;19920;-72
2024/01/29 10:03:38;;;;;;;;;;;;;;;5.57;100.00;102595.03;5120063;28;20421;-72
2024/01/29 10:06:03;;;;;;;;;;;;;;;5.62;100.00;102595.09;5118685;27;20159;-72
2024/01/29 10:08:29;;;;;;;;;;;;;;;5.64;100.00;102593.38;5110682;28;19920;-72
2024/01/29 10:10:57;;;;;;;;;;;;;;;5.68;100.00;102599.47;5116216;28;20239;-72
2024/01/29 10:13:22;;;;;;;;;;;;;;;5.71;100.00;102608.16;5118486;28;19965;-72
2024/01/29 10:15:48;;;;;;;;;;;;;;;5.75;100.00;102603.84;5119721;28;19922;-72
2024/01/29 10:18:15;;;;;;;;;;;;;;;5.76;100.00;102619.44;5117768;28;19912;-72
2024/01/29 10:20:40;;;;;;;;;;;;;;;5.80;100.00;102611.66;5118943;28;19919;-72
2024/01/29 10:23:05;;;;;;;;;;;;;;;5.84;100.00;102610.81;5117892;28;20216;-72
2024/01/29 10:25:33;;;;;;;;;;;;;;;5.87;100.00;102616.06;5120360;28;19916;-72
2024/01/29 10:28:11;;;;;;;;;;;;;;;5.90;100.00;102616.94;5117424;28;19920;-72
2024/01/29 10:30:37;;;;;;;;;;;;;;;5.96;100.00;102618.75;5114974;28;19997;-72
2024/01/29 10:33:02;;;;;;;;;;;;;;;5.99;100.00;102616.19;5115110;28;19920;-72
2024/01/29 10:35:27;;;;;;;;;;;;;;;6.03;100.00;102623.13;5120030;28;19915;-72
2024/01/29 10:37:55;;;;;;;;;;;;;;;6.07;100.00;102621.44;5118528;28;20199;-73
2024/01/29 10:40:21;;;;;;;;;;;;;;;6.11;100.00;102620.56;5117409;28;20020;-72
2024/01/29 10:42:48;;;;;;;;;;;;;;;6.15;100.00;102630.16;5117431;28;19916;-72
2024/01/29 10:45:14;;;;;;;;;;;;;;;6.18;100.00;102624.09;5118295;28;19928;-72
2024/01/29 10:47:43;;;;;;;;;;;;;;;6.20;100.00;102619.78;5118283;28;19951;-72
2024/01/29 10:50:09;;;;;;;;;;;;;;;6.22;100.00;102620.66;5116223;28;19959;-73
2024/01/29 10:52:34;;;;;;;;;;;;;;;6.23;100.00;102618.06;5119646;28;19915;-73
2024/01/29 10:54:59;;;;;;;;;;;;;;;6.28;100.00;102616.38;5100505;28;19916;-72
2024/01/29 10:57:25;;;;;;;;;;;;;;;6.29;100.00;102620.72;5119525;28;20080;-72
2024/01/29 10:59:51;;;;;;;;;;;;;;;6.30;100.00;102616.38;5100655;28;19922;-72
2024/01/29 11:02:16;;;;;;;;;;;;;;;6.30;100.00;102609.44;5118606;28;20127;-72
2024/01/29 11:04:42;;;;;;;;;;;;;;;6.33;100.00;102603.34;5117436;28;19930;-72
2024/01/29 11:07:12;;;;;;;;;;;;;;;6.37;100.00;102606.84;5116921;28;19923;-72
2024/01/29 11:09:40;;;;;;;;;;;;;;;6.39;100.00;102606.00;5117474;28;20270;-72
2024/01/29 11:12:07;;;;;;;;;;;;;;;6.44;100.00;102601.69;5100155;28;19987;-72
2024/01/29 11:14:32;;;;;;;;;;;;;;;6.45;100.00;102598.22;5117838;28;19924;-72
2024/01/29 11:16:57;;;;;;;;;;;;;;;6.48;100.00;102605.19;5118484;28;19919;-72
2024/01/29 11:19:24;;;;;;;;;;;;;;;6.51;100.00;102602.56;5118893;28;19919;-72
2024/01/29 11:21:50;;;;;;;;;;;;;;;6.57;100.00;102607.84;5118187;28;20062;-72
2024/01/29 11:24:16;;;;;;;;;;;;;;;6.61;100.00;102608.72;5118147;28;19931;-72
2024/01/29 11:26:41;;;;;;;;;;;;;;;6.64;100.00;102598.28;5118045;28;20211;-72
2024/01/29 11:29:07;;;;;;;;;;;;;;;6.68;100.00;102602.66;5117698;28;19982;-72
2024/01/29 11:31:42;;;;;;;;;;;;;;;6.72;100.00;102601.81;5117875;28;20259;-72
2024/01/29 11:34:08;;;;;;;;;;;;;;;6.76;100.00;102600.09;5099451;28;20146;-72
2024/01/29 11:36:37;;;;;;;;;;;;;;;6.80;100.00;102594.00;5116311;28;19998;-72
2024/01/29 11:39:03;;;;;;;;;;;;;;;6.82;100.00;102595.78;5117581;28;19923;-72
2024/01/29 11:41:28;;;;;;;;;;;;;;;6.85;100.00;102590.56;5117791;28;19936;-72
2024/01/29 11:43:54;;;;;;;;;;;;;;;6.87;100.00;102585.34;5117764;28;19950;-72
2024/01/29 11:46:20;;;;;;;;;;;;;;;6.91;100.00;102589.69;5116978;28;19945;-72
2024/01/29 11:48:45;;;;;;;;;;;;;;;6.95;100.00;102591.47;5117633;28;19918;-72
2024/01/29 11:51:11;;;;;;;;;;;;;;;6.98;100.00;102594.06;5117645;27;19931;-72
2024/01/29 11:53:36;;;;;;;;;;;;;;;7.03;100.00;102596.69;5118312;27;19923;-73
2024/01/29 11:56:02;;;;;;;;;;;;;;;7.04;100.00;102588.88;5117745;28;19923;-73
2024/01/29 11:58:27;;;;;;;;;;;;;;;7.09;100.00;102594.97;5115989;28;19920;-72
2024/01/29 12:00:53;;;;;;;;;;;;;;;7.16;100.00;102592.38;5117608;28;19947;-72
2024/01/29 12:03:22;;;;;;;;;;;;;;;7.18;100.00;102596.69;5098954;28;19931;-72
2024/01/29 12:05:49;;;;;;;;;;;;;;;7.24;100.00;102598.44;5116016;28;19916;-72
2024/01/29 12:08:17;;;;;;;;;;;;;;;7.29;100.00;102594.13;5117046;28;19915;-72
2024/01/29 12:10:44;;;;;;;;;;;;;;;7.32;100.00;102594.13;5115273;28;19989;-72
2024/01/29 12:13:12;;;;;;;;;;;;;;;7.35;100.00;102591.53;5120836;27;19951;-72
2024/01/29 12:15:38;;;;;;;;;;;;;;;7.37;100.00;102595.00;5114228;28;19926;-72
2024/01/29 12:18:07;;;;;;;;;;;;;;;7.41;100.00;102588.91;5118115;27;19920;-73
2024/01/29 12:20:34;;;;;;;;;;;;;;;7.45;100.00;102595.88;5096516;28;19931;-73
2024/01/29 12:22:59;;;;;;;;;;;;;;;7.49;100.00;102592.41;5117541;28;19920;-73
2024/01/29 12:25:24;;;;;;;;;;;;;;;7.54;100.00;102592.41;5118330;28;19926;-72
2024/01/29 12:27:51;;;;;;;;;;;;;;;7.56;100.00;102584.59;5099622;28;19950;-72